createdAt,value
2022-09-30T00:00:32.952Z,10.10
2022-09-30T00:01:33.037Z,10.05
2022-09-30T00:02:32.993Z,10.03
2022-09-30T00:03:32.925Z,10.10
2022-09-30T00:04:32.934Z,10.08
2022-09-30T00:05:32.903Z,10.09
2022-09-30T00:06:32.891Z,10.16
2022-09-30T00:07:32.877Z,10.09
2022-09-30T00:08:32.871Z,10.12
2022-09-30T00:09:32.920Z,10.05
2022-09-30T00:10:32.850Z,10.09
2022-09-30T00:11:32.835Z,10.02
2022-09-30T00:12:32.821Z,9.98
2022-09-30T00:13:32.831Z,10.05
2022-09-30T00:14:32.828Z,10.01
2022-09-30T00:15:32.794Z,10.06
2022-09-30T00:16:33.006Z,10.05
2022-09-30T00:17:32.776Z,10.02
2022-09-30T00:18:32.763Z,9.98
2022-09-30T00:19:32.772Z,9.90
2022-09-30T00:20:32.738Z,9.91
2022-09-30T00:21:32.726Z,9.98
2022-09-30T00:22:32.712Z,9.94
2022-09-30T00:23:32.708Z,10.01
2022-09-30T00:24:32.720Z,9.90
2022-09-30T00:25:32.698Z,9.91
2022-09-30T00:26:32.674Z,9.87
2022-09-30T00:27:32.659Z,9.80
2022-09-30T00:28:32.651Z,9.80
2022-09-30T00:29:32.691Z,9.78
2022-09-30T00:30:32.630Z,9.80
2022-09-30T00:31:32.683Z,9.80
2022-09-30T00:32:32.610Z,9.81
2022-09-30T00:33:32.595Z,9.88
2022-09-30T00:34:32.605Z,9.80
2022-09-30T00:35:32.577Z,9.80
2022-09-30T00:36:32.566Z,9.75
2022-09-30T00:37:32.555Z,9.80
2022-09-30T00:38:32.543Z,9.72
2022-09-30T00:39:32.558Z,9.77
2022-09-30T00:40:32.531Z,9.73
2022-09-30T00:41:32.544Z,9.75
2022-09-30T00:42:32.512Z,9.67
2022-09-30T00:43:32.508Z,9.73
2022-09-30T00:44:32.530Z,9.66
2022-09-30T00:45:32.486Z,9.65
2022-09-30T00:46:32.529Z,9.65
2022-09-30T00:47:32.447Z,9.66
2022-09-30T00:48:32.439Z,9.63
2022-09-30T00:49:32.420Z,9.65
2022-09-30T00:50:32.444Z,9.66
2022-09-30T00:51:32.399Z,9.60
2022-09-30T00:52:32.387Z,9.60
2022-09-30T00:53:32.377Z,9.54
2022-09-30T00:54:32.375Z,9.57
2022-09-30T00:55:32.396Z,9.59
2022-09-30T00:56:32.352Z,9.59
2022-09-30T00:57:32.336Z,9.48
2022-09-30T00:58:32.330Z,9.54
2022-09-30T00:59:32.315Z,9.55
2022-09-30T01:00:32.338Z,9.36
2022-09-30T01:01:32.330Z,9.52
2022-09-30T01:02:32.283Z,9.52
2022-09-30T01:03:32.271Z,9.50
2022-09-30T01:04:32.265Z,9.48
2022-09-30T01:05:32.251Z,9.42
2022-09-30T01:06:32.261Z,9.45
2022-09-30T01:07:32.227Z,9.51
2022-09-30T01:08:32.219Z,9.41
2022-09-30T01:09:32.240Z,9.41
2022-09-30T01:10:32.216Z,9.45
2022-09-30T01:11:32.208Z,9.48
2022-09-30T01:12:32.174Z,9.48
2022-09-30T01:13:32.165Z,9.37
2022-09-30T01:14:32.152Z,9.41
2022-09-30T01:15:32.142Z,9.42
2022-09-30T01:16:32.235Z,9.47
2022-09-30T01:17:32.138Z,9.37
2022-09-30T01:18:32.112Z,9.33
2022-09-30T01:19:32.095Z,9.33
2022-09-30T01:20:32.088Z,9.36
2022-09-30T01:21:32.099Z,9.42
2022-09-30T01:22:32.065Z,9.33
2022-09-30T01:23:32.059Z,9.34
2022-09-30T01:24:32.049Z,9.24
2022-09-30T01:25:32.032Z,9.23
2022-09-30T01:26:32.044Z,9.30
2022-09-30T01:27:32.009Z,9.30
2022-09-30T01:28:32.004Z,9.24
2022-09-30T01:29:31.989Z,9.24
2022-09-30T01:30:31.978Z,9.32
2022-09-30T01:31:32.059Z,9.32
2022-09-30T01:32:31.955Z,9.32
2022-09-30T01:33:31.963Z,9.22
2022-09-30T01:34:31.936Z,9.37
2022-09-30T01:35:31.920Z,9.30
2022-09-30T01:36:31.931Z,9.16
2022-09-30T01:37:31.903Z,9.19
2022-09-30T01:38:31.896Z,9.24
2022-09-30T01:39:31.876Z,9.14
2022-09-30T01:40:31.872Z,9.18
2022-09-30T01:41:31.891Z,9.22
2022-09-30T01:42:31.846Z,9.15
2022-09-30T01:43:31.837Z,9.19
2022-09-30T01:44:31.818Z,9.19
2022-09-30T01:45:31.814Z,9.11
2022-09-30T01:46:31.924Z,9.14
2022-09-30T01:47:31.790Z,9.11
2022-09-30T01:48:31.779Z,9.14
2022-09-30T01:49:31.791Z,9.11
2022-09-30T01:50:31.760Z,9.09
2022-09-30T01:51:31.768Z,9.11
2022-09-30T01:52:31.757Z,9.11
2022-09-30T01:53:31.722Z,9.14
2022-09-30T01:54:31.710Z,9.15
2022-09-30T01:55:31.700Z,9.11
2022-09-30T01:56:31.688Z,9.11
2022-09-30T01:57:31.705Z,9.12
2022-09-30T01:58:31.667Z,9.08
2022-09-30T01:59:31.658Z,8.93
2022-09-30T02:00:31.759Z,9.01
2022-09-30T02:01:31.745Z,8.96
2022-09-30T02:02:31.696Z,8.95
2022-09-30T02:03:31.609Z,8.95
2022-09-30T02:04:31.613Z,8.90
2022-09-30T02:05:31.609Z,8.99
2022-09-30T02:06:31.601Z,8.90
2022-09-30T02:07:31.591Z,8.89
2022-09-30T02:08:31.571Z,8.98
2022-09-30T02:09:31.617Z,8.95
2022-09-30T02:10:31.534Z,8.90
2022-09-30T02:11:31.519Z,8.90
2022-09-30T02:12:31.544Z,8.90
2022-09-30T02:13:31.504Z,8.90
2022-09-30T02:14:31.488Z,8.92
2022-09-30T02:15:31.478Z,8.86
2022-09-30T02:16:31.543Z,8.88
2022-09-30T02:17:31.455Z,8.90
2022-09-30T02:18:31.443Z,8.83
2022-09-30T02:19:31.438Z,8.89
2022-09-30T02:20:31.423Z,8.86
2022-09-30T02:21:31.450Z,8.89
2022-09-30T02:22:31.420Z,8.81
2022-09-30T02:23:31.383Z,8.83
2022-09-30T02:24:31.391Z,8.75
2022-09-30T02:25:31.367Z,8.77
2022-09-30T02:26:31.383Z,8.80
2022-09-30T02:27:31.366Z,8.75
2022-09-30T02:28:31.336Z,8.75
2022-09-30T02:29:31.325Z,8.71
2022-09-30T02:30:31.313Z,8.78
2022-09-30T02:31:31.341Z,8.71
2022-09-30T02:32:31.310Z,8.75
2022-09-30T02:33:31.273Z,8.75
2022-09-30T02:34:31.269Z,8.70
2022-09-30T02:35:31.255Z,8.70
2022-09-30T02:36:31.251Z,8.67
2022-09-30T02:37:31.281Z,8.62
2022-09-30T02:38:31.242Z,8.65
2022-09-30T02:39:31.216Z,8.74
2022-09-30T02:40:31.205Z,8.74
2022-09-30T02:41:31.194Z,8.65
2022-09-30T02:42:31.197Z,8.57
2022-09-30T02:43:31.175Z,8.65
2022-09-30T02:44:31.157Z,8.59
2022-09-30T02:45:31.145Z,8.59
2022-09-30T02:46:31.156Z,8.62
2022-09-30T02:47:31.148Z,8.63
2022-09-30T02:48:31.116Z,8.59
2022-09-30T02:49:31.103Z,8.63
2022-09-30T02:50:31.096Z,8.62
2022-09-30T02:51:31.082Z,8.60
2022-09-30T02:52:31.138Z,8.52
2022-09-30T02:53:31.123Z,8.50
2022-09-30T02:54:31.054Z,8.57
2022-09-30T02:55:31.039Z,8.52
2022-09-30T02:56:31.050Z,8.47
2022-09-30T02:57:31.017Z,8.55
2022-09-30T02:58:31.011Z,8.52
2022-09-30T02:59:30.998Z,8.41
2022-09-30T03:00:31.027Z,8.42
2022-09-30T03:01:31.151Z,8.46
2022-09-30T03:02:30.974Z,8.46
2022-09-30T03:03:30.956Z,8.47
2022-09-30T03:04:30.946Z,8.47
2022-09-30T03:05:30.937Z,8.47
2022-09-30T03:06:30.949Z,8.38
2022-09-30T03:07:30.912Z,8.41
2022-09-30T03:08:30.901Z,8.39
2022-09-30T03:09:30.967Z,8.37
2022-09-30T03:10:30.878Z,8.38
2022-09-30T03:11:30.889Z,8.37
2022-09-30T03:12:30.860Z,8.42
2022-09-30T03:13:30.881Z,8.35
2022-09-30T03:14:30.841Z,8.39
2022-09-30T03:15:30.828Z,8.34
2022-09-30T03:16:30.941Z,8.41
2022-09-30T03:17:30.807Z,8.37
2022-09-30T03:18:30.799Z,8.35
2022-09-30T03:19:30.807Z,8.37
2022-09-30T03:20:30.779Z,8.39
2022-09-30T03:21:30.760Z,8.35
2022-09-30T03:22:30.756Z,8.29
2022-09-30T03:23:30.781Z,8.34
2022-09-30T03:24:30.729Z,8.31
2022-09-30T03:25:30.736Z,8.37
2022-09-30T03:26:30.712Z,8.23
2022-09-30T03:27:30.699Z,8.29
2022-09-30T03:28:30.689Z,8.31
2022-09-30T03:29:30.703Z,8.26
2022-09-30T03:30:30.665Z,8.23
2022-09-30T03:31:30.696Z,8.31
2022-09-30T03:32:30.648Z,8.26
2022-09-30T03:33:30.659Z,8.23
2022-09-30T03:34:30.620Z,8.19
2022-09-30T03:35:30.615Z,8.23
2022-09-30T03:36:30.602Z,8.17
2022-09-30T03:37:30.596Z,8.23
2022-09-30T03:38:30.609Z,8.23
2022-09-30T03:39:30.608Z,8.19
2022-09-30T03:40:30.562Z,8.10
2022-09-30T03:41:30.569Z,8.16
2022-09-30T03:42:30.545Z,8.13
2022-09-30T03:43:30.540Z,8.12
2022-09-30T03:44:30.548Z,8.14
2022-09-30T03:45:30.513Z,8.14
2022-09-30T03:46:30.545Z,8.13
2022-09-30T03:47:30.486Z,8.10
2022-09-30T03:48:30.473Z,8.13
2022-09-30T03:49:30.490Z,8.12
2022-09-30T03:50:32.297Z,8.14
2022-09-30T03:51:32.156Z,8.13
2022-09-30T03:52:32.139Z,8.09
2022-09-30T03:53:30.428Z,8.09
2022-09-30T03:54:30.442Z,8.01
2022-09-30T03:55:30.404Z,8.14
2022-09-30T03:56:30.394Z,8.04
2022-09-30T03:57:30.397Z,8.02
2022-09-30T03:58:30.373Z,8.04
2022-09-30T03:59:30.380Z,7.96
2022-09-30T04:00:30.418Z,8.04
2022-09-30T04:01:30.344Z,8.01
2022-09-30T04:02:30.348Z,7.99
2022-09-30T04:03:30.324Z,7.98
2022-09-30T04:04:30.343Z,7.95
2022-09-30T04:05:30.304Z,7.94
2022-09-30T04:06:30.283Z,7.98
2022-09-30T04:07:30.301Z,7.98
2022-09-30T04:08:33.741Z,7.94
2022-09-30T04:09:30.329Z,7.98
2022-09-30T04:10:30.239Z,7.98
2022-09-30T04:11:30.229Z,7.95
2022-09-30T04:12:30.225Z,7.88
2022-09-30T04:13:30.245Z,7.94
2022-09-30T04:14:30.200Z,8.02
2022-09-30T04:15:30.188Z,7.86
2022-09-30T04:16:30.211Z,7.88
2022-09-30T04:17:30.164Z,7.87
2022-09-30T04:18:30.173Z,7.91
2022-09-30T04:19:30.146Z,7.91
2022-09-30T04:20:30.133Z,7.91
2022-09-30T04:21:30.125Z,7.84
2022-09-30T04:22:30.118Z,7.88
2022-09-30T04:23:30.126Z,7.87
2022-09-30T04:24:30.113Z,7.88
2022-09-30T04:25:30.082Z,7.81
2022-09-30T04:26:30.067Z,7.88
2022-09-30T04:27:30.057Z,7.83
2022-09-30T04:28:30.077Z,7.91
2022-09-30T04:29:30.132Z,7.91
2022-09-30T04:30:33.400Z,7.91
2022-09-30T04:31:30.085Z,7.76
2022-09-30T04:32:30.009Z,7.91
2022-09-30T04:33:29.992Z,7.80
2022-09-30T04:34:30.005Z,7.76
2022-09-30T04:35:30.038Z,7.80
2022-09-30T04:36:29.966Z,7.80
2022-09-30T04:37:29.952Z,7.80
2022-09-30T04:38:29.940Z,7.76
2022-09-30T04:39:29.927Z,7.83
2022-09-30T04:40:29.943Z,7.83
2022-09-30T04:41:29.912Z,7.81
2022-09-30T04:42:29.898Z,7.80
2022-09-30T04:43:29.886Z,7.80
2022-09-30T04:44:29.876Z,7.77
2022-09-30T04:45:29.969Z,7.76
2022-09-30T04:46:29.898Z,7.76
2022-09-30T04:47:29.843Z,7.66
2022-09-30T04:48:29.839Z,7.69
2022-09-30T04:49:29.818Z,7.77
2022-09-30T04:50:29.844Z,7.73
2022-09-30T04:51:29.800Z,7.73
2022-09-30T04:52:29.807Z,7.74
2022-09-30T04:53:29.782Z,7.69
2022-09-30T04:54:29.770Z,7.74
2022-09-30T04:55:29.755Z,7.77
2022-09-30T04:56:29.774Z,7.69
2022-09-30T04:57:29.734Z,7.68
2022-09-30T04:58:33.428Z,7.71
2022-09-30T04:59:30.725Z,7.68
2022-09-30T05:00:29.794Z,7.69
2022-09-30T05:01:29.738Z,7.60
2022-09-30T05:02:29.761Z,7.62
2022-09-30T05:03:29.672Z,7.74
2022-09-30T05:04:29.676Z,7.66
2022-09-30T05:05:29.665Z,7.71
2022-09-30T05:06:29.642Z,7.71
2022-09-30T05:07:29.635Z,7.69
2022-09-30T05:08:29.625Z,7.68
2022-09-30T05:09:29.698Z,7.66
2022-09-30T05:10:29.598Z,7.62
2022-09-30T05:11:29.583Z,7.62
2022-09-30T05:12:29.591Z,7.66
2022-09-30T05:13:29.567Z,7.58
2022-09-30T05:14:29.576Z,7.60
2022-09-30T05:15:29.542Z,7.60
2022-09-30T05:16:29.558Z,7.64
2022-09-30T05:17:29.538Z,7.62
2022-09-30T05:18:29.515Z,7.62
2022-09-30T05:19:29.526Z,7.54
2022-09-30T05:20:29.490Z,7.64
2022-09-30T05:21:29.479Z,7.68
2022-09-30T05:22:29.471Z,7.58
2022-09-30T05:23:29.461Z,7.61
2022-09-30T05:24:29.470Z,7.62
2022-09-30T05:25:29.441Z,7.52
2022-09-30T05:26:29.427Z,7.57
2022-09-30T05:27:29.418Z,7.54
2022-09-30T05:28:29.406Z,7.60
2022-09-30T05:29:29.419Z,7.50
2022-09-30T05:30:29.394Z,7.52
2022-09-30T05:31:29.456Z,7.54
2022-09-30T05:32:29.388Z,7.49
2022-09-30T05:33:29.378Z,7.50
2022-09-30T05:34:29.342Z,7.50
2022-09-30T05:35:29.333Z,7.44
2022-09-30T05:36:29.318Z,7.40
2022-09-30T05:37:29.305Z,7.47
2022-09-30T05:38:29.316Z,7.49
2022-09-30T05:39:29.289Z,7.49
2022-09-30T05:40:29.275Z,7.47
2022-09-30T05:41:29.272Z,7.43
2022-09-30T05:42:29.256Z,7.49
2022-09-30T05:43:29.265Z,7.36
2022-09-30T05:44:29.235Z,7.49
2022-09-30T05:45:29.218Z,7.44
2022-09-30T05:46:29.285Z,7.49
2022-09-30T05:47:29.202Z,7.46
2022-09-30T05:48:29.207Z,7.50
2022-09-30T05:49:29.222Z,7.43
2022-09-30T05:50:29.179Z,7.43
2022-09-30T05:51:29.157Z,7.52
2022-09-30T05:52:29.149Z,7.46
2022-09-30T05:53:29.145Z,7.42
2022-09-30T05:54:29.146Z,7.44
2022-09-30T05:55:29.117Z,7.42
2022-09-30T05:56:29.122Z,7.40
2022-09-30T05:57:29.098Z,7.50
2022-09-30T05:58:29.082Z,7.49
2022-09-30T05:59:29.077Z,7.43
2022-09-30T06:00:29.123Z,7.43
2022-09-30T06:01:29.138Z,7.42
2022-09-30T06:02:29.158Z,7.39
2022-09-30T06:03:29.027Z,7.43
2022-09-30T06:04:29.016Z,7.43
2022-09-30T06:05:29.031Z,7.40
2022-09-30T06:06:29.016Z,7.47
2022-09-30T06:07:28.981Z,7.49
2022-09-30T06:08:28.976Z,7.40
2022-09-30T06:09:29.036Z,7.42
2022-09-30T06:10:28.955Z,7.43
2022-09-30T06:11:28.964Z,7.39
2022-09-30T06:12:28.930Z,7.40
2022-09-30T06:13:28.962Z,7.37
2022-09-30T06:14:28.907Z,7.40
2022-09-30T06:15:28.898Z,7.43
2022-09-30T06:16:28.963Z,7.40
2022-09-30T06:17:28.881Z,7.50
2022-09-30T06:18:28.865Z,7.40
2022-09-30T06:19:28.879Z,7.37
2022-09-30T06:20:28.850Z,7.39
2022-09-30T06:21:28.855Z,7.43
2022-09-30T06:22:28.822Z,7.46
2022-09-30T06:23:28.837Z,7.40
2022-09-30T06:24:28.827Z,7.46
2022-09-30T06:25:28.811Z,7.42
2022-09-30T06:26:28.785Z,7.42
2022-09-30T06:27:28.766Z,7.50
2022-09-30T06:28:28.789Z,7.47
2022-09-30T06:29:28.760Z,7.37
2022-09-30T06:30:34.256Z,7.54
2022-09-30T06:31:29.769Z,7.44
2022-09-30T06:32:28.712Z,7.46
2022-09-30T06:33:28.707Z,7.52
2022-09-30T06:34:28.721Z,7.49
2022-09-30T06:35:28.686Z,7.49
2022-09-30T06:36:28.678Z,7.50
2022-09-30T06:37:28.714Z,7.34
2022-09-30T06:38:28.674Z,7.46
2022-09-30T06:39:28.707Z,7.52
2022-09-30T06:40:28.676Z,7.47
2022-09-30T06:41:28.634Z,7.49
2022-09-30T06:42:28.612Z,7.50
2022-09-30T06:43:28.625Z,7.52
2022-09-30T06:44:28.625Z,7.49
2022-09-30T06:45:32.727Z,7.52
2022-09-30T06:46:31.274Z,7.47
2022-09-30T06:47:28.630Z,7.55
2022-09-30T06:48:37.942Z,7.54
2022-09-30T06:49:41.431Z,7.55
2022-09-30T06:50:29.523Z,7.54
2022-09-30T06:51:28.541Z,7.58
2022-09-30T06:52:28.504Z,7.58
2022-09-30T06:53:28.518Z,7.60
2022-09-30T06:54:28.498Z,7.61
2022-09-30T06:55:28.476Z,7.64
2022-09-30T06:56:28.459Z,7.58
2022-09-30T06:57:28.472Z,7.61
2022-09-30T06:58:28.441Z,7.71
2022-09-30T06:59:28.426Z,7.66
2022-09-30T07:00:28.437Z,7.64
2022-09-30T07:01:28.473Z,7.73
2022-09-30T07:02:28.441Z,7.64
2022-09-30T07:03:29.100Z,7.66
2022-09-30T07:04:28.372Z,7.78
2022-09-30T07:05:28.400Z,7.71
2022-09-30T07:06:28.356Z,7.76
2022-09-30T07:07:28.336Z,7.71
2022-09-30T07:08:28.339Z,7.77
2022-09-30T07:09:28.418Z,7.74
2022-09-30T07:10:28.316Z,7.78
2022-09-30T07:11:28.302Z,7.77
2022-09-30T07:12:28.313Z,7.80
2022-09-30T07:13:28.282Z,7.83
2022-09-30T07:14:28.272Z,7.76
2022-09-30T07:15:28.260Z,7.81
2022-09-30T07:16:28.298Z,7.77
2022-09-30T07:17:28.256Z,7.88
2022-09-30T07:18:28.232Z,7.88
2022-09-30T07:19:28.216Z,7.91
2022-09-30T07:20:28.207Z,7.87
2022-09-30T07:21:28.198Z,7.94
2022-09-30T07:22:28.207Z,7.87
2022-09-30T07:23:28.173Z,7.91
2022-09-30T07:24:28.178Z,7.88
2022-09-30T07:25:28.174Z,8.05
2022-09-30T07:26:28.166Z,8.02
2022-09-30T07:27:28.134Z,8.04
2022-09-30T07:28:28.142Z,7.99
2022-09-30T07:29:36.572Z,7.99
2022-09-30T07:30:29.181Z,8.12
2022-09-30T07:31:33.065Z,8.10
2022-09-30T07:32:29.130Z,8.10
2022-09-30T07:33:28.072Z,8.12
2022-09-30T07:34:28.066Z,8.13
2022-09-30T07:35:28.071Z,8.21
2022-09-30T07:36:32.175Z,8.20
2022-09-30T07:37:28.034Z,8.29
2022-09-30T07:38:28.031Z,8.24
2022-09-30T07:39:28.008Z,8.24
2022-09-30T07:40:28.032Z,8.32
2022-09-30T07:41:28.003Z,8.38
2022-09-30T07:42:27.976Z,8.29
2022-09-30T07:43:27.988Z,8.35
2022-09-30T07:44:27.950Z,8.39
2022-09-30T07:45:28.011Z,8.37
2022-09-30T07:46:27.928Z,8.47
2022-09-30T07:47:27.918Z,8.49
2022-09-30T07:48:27.901Z,8.42
2022-09-30T07:49:27.892Z,8.55
2022-09-30T07:50:27.935Z,8.56
2022-09-30T07:51:27.872Z,8.55
2022-09-30T07:52:27.859Z,8.57
2022-09-30T07:53:27.856Z,8.65
2022-09-30T07:54:27.832Z,8.67
2022-09-30T07:55:27.831Z,8.77
2022-09-30T07:56:27.840Z,8.70
2022-09-30T07:57:27.823Z,8.71
2022-09-30T07:58:27.810Z,8.83
2022-09-30T07:59:27.781Z,8.83
2022-09-30T08:00:42.247Z,8.83
2022-09-30T08:01:28.814Z,8.85
2022-09-30T08:02:27.776Z,8.89
2022-09-30T08:03:27.762Z,8.92
2022-09-30T08:04:27.730Z,8.89
2022-09-30T08:05:27.721Z,8.90
2022-09-30T08:06:27.728Z,9.01
2022-09-30T08:07:27.698Z,9.09
2022-09-30T08:08:27.689Z,9.09
2022-09-30T08:09:27.911Z,9.11
2022-09-30T08:10:27.676Z,9.11
2022-09-30T08:11:27.681Z,9.09
2022-09-30T08:12:27.642Z,9.16
2022-09-30T08:13:27.647Z,9.19
2022-09-30T08:14:27.619Z,9.22
2022-09-30T08:15:27.614Z,9.33
2022-09-30T08:16:27.761Z,9.27
2022-09-30T08:17:27.591Z,9.36
2022-09-30T08:18:27.577Z,9.32
2022-09-30T08:19:27.581Z,9.32
2022-09-30T08:20:27.558Z,9.42
2022-09-30T08:21:27.547Z,9.37
2022-09-30T08:22:27.550Z,9.44
2022-09-30T08:23:27.522Z,9.45
2022-09-30T08:24:27.750Z,9.47
2022-09-30T08:25:27.500Z,9.51
2022-09-30T08:26:27.486Z,9.59
2022-09-30T08:27:27.614Z,9.48
2022-09-30T08:28:27.465Z,9.52
2022-09-30T08:29:54.433Z,9.60
2022-09-30T08:30:28.442Z,9.59
2022-09-30T08:31:27.467Z,9.66
2022-09-30T08:32:27.437Z,9.59
2022-09-30T08:33:27.417Z,9.73
2022-09-30T08:34:27.423Z,9.69
2022-09-30T08:35:27.430Z,9.77
2022-09-30T08:36:27.381Z,9.78
2022-09-30T08:37:27.373Z,9.80
2022-09-30T08:38:27.357Z,9.85
2022-09-30T08:39:27.373Z,9.84
2022-09-30T08:40:27.336Z,9.90
2022-09-30T08:41:27.324Z,9.94
2022-09-30T08:42:48.342Z,9.90
2022-09-30T08:43:28.300Z,10.03
2022-09-30T08:44:27.331Z,10.01
2022-09-30T08:45:27.410Z,10.09
2022-09-30T08:46:27.408Z,10.09
2022-09-30T08:47:27.290Z,10.12
2022-09-30T08:48:27.247Z,10.14
2022-09-30T08:49:27.281Z,10.12
2022-09-30T08:50:27.224Z,10.08
2022-09-30T08:51:27.247Z,10.14
2022-09-30T08:52:37.357Z,10.20
2022-09-30T08:53:28.194Z,10.24
2022-09-30T08:54:27.181Z,10.20
2022-09-30T08:55:27.173Z,10.27
2022-09-30T08:56:27.180Z,10.21
2022-09-30T08:57:27.175Z,10.36
2022-09-30T08:58:27.140Z,10.26
2022-09-30T08:59:27.127Z,10.30
2022-09-30T09:00:27.140Z,10.31
2022-09-30T09:01:27.234Z,10.41
2022-09-30T09:02:27.124Z,10.42
2022-09-30T09:03:27.102Z,10.38
2022-09-30T09:04:27.117Z,10.46
2022-09-30T09:05:27.066Z,10.42
2022-09-30T09:06:27.052Z,10.46
2022-09-30T09:07:27.048Z,10.52
2022-09-30T09:08:27.056Z,10.55
2022-09-30T09:09:27.023Z,10.57
2022-09-30T09:10:27.031Z,10.52
2022-09-30T09:11:27.003Z,10.61
2022-09-30T09:12:26.997Z,10.65
2022-09-30T09:13:26.983Z,10.61
2022-09-30T09:14:26.969Z,10.72
2022-09-30T09:15:26.974Z,10.67
2022-09-30T09:16:26.987Z,10.72
2022-09-30T09:17:26.951Z,10.75
2022-09-30T09:18:26.963Z,10.82
2022-09-30T09:19:26.915Z,10.80
2022-09-30T09:20:26.906Z,10.82
2022-09-30T09:21:26.902Z,10.83
2022-09-30T09:22:26.880Z,10.83
2022-09-30T09:23:26.872Z,10.85
2022-09-30T09:24:26.883Z,10.90
2022-09-30T09:25:26.856Z,10.98
2022-09-30T09:26:26.839Z,10.95
2022-09-30T09:27:26.886Z,10.97
2022-09-30T09:28:26.883Z,11.05
2022-09-30T09:29:26.816Z,10.97
2022-09-30T09:30:26.802Z,10.91
2022-09-30T09:31:26.889Z,11.01
2022-09-30T09:32:26.770Z,11.03
2022-09-30T09:33:26.777Z,11.04
2022-09-30T09:34:26.775Z,11.09
2022-09-30T09:35:26.739Z,11.15
2022-09-30T09:36:26.752Z,11.16
2022-09-30T09:37:26.719Z,11.16
2022-09-30T09:38:26.712Z,11.16
2022-09-30T09:39:26.694Z,11.22
2022-09-30T09:40:26.681Z,11.20
2022-09-30T09:41:26.712Z,11.27
2022-09-30T09:42:26.713Z,11.28
2022-09-30T09:43:29.434Z,11.31
2022-09-30T09:44:26.641Z,11.30
2022-09-30T09:45:26.628Z,11.36
2022-09-30T09:46:26.733Z,11.34
2022-09-30T09:47:26.606Z,11.46
2022-09-30T09:48:26.596Z,11.48
2022-09-30T09:49:26.627Z,11.46
2022-09-30T09:50:26.581Z,11.56
2022-09-30T09:51:26.567Z,11.56
2022-09-30T09:52:26.586Z,11.54
2022-09-30T09:53:26.544Z,11.52
2022-09-30T09:54:26.540Z,11.67
2022-09-30T09:55:26.519Z,11.66
2022-09-30T09:56:31.867Z,11.67
2022-09-30T09:57:27.518Z,11.66
2022-09-30T09:58:26.488Z,11.80
2022-09-30T09:59:26.744Z,11.69
2022-09-30T10:00:26.468Z,11.79
2022-09-30T10:01:26.495Z,11.82
2022-09-30T10:02:26.542Z,11.82
2022-09-30T10:03:26.434Z,11.80
2022-09-30T10:04:26.451Z,11.96
2022-09-30T10:05:26.602Z,11.93
2022-09-30T10:06:26.403Z,11.88
2022-09-30T10:07:26.391Z,11.91
2022-09-30T10:08:26.376Z,12.03
2022-09-30T10:09:26.399Z,12.05
2022-09-30T10:10:26.359Z,11.99
2022-09-30T10:11:26.355Z,12.08
2022-09-30T10:12:26.335Z,12.04
2022-09-30T10:13:26.329Z,12.25
2022-09-30T10:14:26.311Z,12.18
2022-09-30T10:15:26.390Z,12.17
2022-09-30T10:16:26.291Z,12.28
2022-09-30T10:17:26.281Z,12.29
2022-09-30T10:18:26.269Z,12.35
2022-09-30T10:19:26.260Z,12.41
2022-09-30T10:20:26.271Z,12.44
2022-09-30T10:21:26.265Z,12.48
2022-09-30T10:22:26.227Z,12.48
2022-09-30T10:23:26.214Z,12.51
2022-09-30T10:24:26.207Z,12.61
2022-09-30T10:25:26.208Z,12.58
2022-09-30T10:27:26.288Z,12.73
2022-09-30T10:28:26.235Z,12.73
2022-09-30T10:29:26.203Z,12.77
2022-09-30T10:30:26.141Z,12.77
2022-09-30T10:31:26.205Z,12.96
2022-09-30T10:32:26.143Z,12.96
2022-09-30T10:33:26.109Z,13.01
2022-09-30T10:34:26.100Z,13.04
2022-09-30T10:35:26.096Z,13.17
2022-09-30T10:36:26.079Z,13.23
2022-09-30T10:37:26.101Z,13.35
2022-09-30T10:38:26.170Z,13.35
2022-09-30T10:39:26.039Z,13.35
2022-09-30T10:40:26.044Z,13.40
2022-09-30T10:41:26.341Z,13.54
2022-09-30T10:42:26.985Z,13.51
2022-09-30T10:43:25.996Z,13.60
2022-09-30T10:44:26.014Z,13.68
2022-09-30T10:45:26.004Z,13.71
2022-09-30T10:46:27.474Z,13.75
2022-09-30T10:47:25.953Z,13.80
2022-09-30T10:48:25.944Z,13.83
2022-09-30T10:49:25.932Z,13.88
2022-09-30T10:50:25.949Z,13.96
2022-09-30T10:51:26.108Z,14.09
2022-09-30T10:52:25.901Z,14.15
2022-09-30T10:53:25.966Z,14.36
2022-09-30T10:54:25.882Z,14.36
2022-09-30T10:55:25.892Z,14.44
2022-09-30T10:56:25.862Z,14.56
2022-09-30T10:57:25.845Z,14.58
2022-09-30T10:58:25.836Z,14.69
2022-09-30T10:59:25.832Z,14.77
2022-09-30T11:00:25.839Z,14.77
2022-09-30T11:01:26.223Z,14.96
2022-09-30T11:02:25.796Z,14.95
2022-09-30T11:03:25.845Z,14.96
2022-09-30T11:04:25.774Z,15.05
2022-09-30T11:05:25.757Z,15.04
2022-09-30T11:06:26.296Z,15.07
2022-09-30T11:07:25.738Z,15.11
2022-09-30T11:08:25.732Z,15.22
2022-09-30T11:09:25.731Z,15.27
2022-09-30T11:10:25.706Z,15.32
2022-09-30T11:11:25.722Z,15.35
2022-09-30T11:12:25.685Z,15.40
2022-09-30T11:13:25.673Z,15.48
2022-09-30T11:14:25.664Z,15.52
2022-09-30T11:15:25.651Z,15.56
2022-09-30T11:16:26.173Z,15.66
2022-09-30T11:17:25.626Z,15.72
2022-09-30T11:18:25.617Z,15.80
2022-09-30T11:19:25.610Z,15.76
2022-09-30T11:20:25.622Z,15.85
2022-09-30T11:21:25.587Z,15.96
2022-09-30T11:22:25.575Z,16.10
2022-09-30T11:23:25.560Z,16.02
2022-09-30T11:24:25.576Z,16.08
2022-09-30T11:25:25.561Z,16.13
2022-09-30T11:26:25.929Z,16.28
2022-09-30T11:27:25.525Z,16.34
2022-09-30T11:28:25.586Z,16.37
2022-09-30T11:29:25.500Z,16.42
2022-09-30T11:30:25.497Z,16.51
2022-09-30T11:31:25.600Z,16.65
2022-09-30T11:32:25.464Z,16.59
2022-09-30T11:33:25.461Z,16.67
2022-09-30T11:34:25.480Z,16.74
2022-09-30T11:35:25.436Z,16.76
2022-09-30T11:36:25.909Z,16.90
2022-09-30T11:37:25.411Z,16.88
2022-09-30T11:38:25.398Z,16.92
2022-09-30T11:39:25.425Z,16.99
2022-09-30T11:40:25.377Z,17.17
2022-09-30T11:41:25.384Z,17.10
2022-09-30T11:42:25.368Z,17.24
2022-09-30T11:43:25.355Z,17.19
2022-09-30T11:44:25.363Z,17.37
2022-09-30T11:45:25.394Z,17.38
2022-09-30T11:46:25.587Z,17.37
2022-09-30T11:47:25.311Z,17.47
2022-09-30T11:48:28.224Z,17.49
2022-09-30T11:49:26.295Z,17.66
2022-09-30T11:50:25.280Z,17.62
2022-09-30T11:51:25.291Z,17.73
2022-09-30T11:52:25.254Z,17.87
2022-09-30T11:53:25.243Z,17.96
2022-09-30T11:54:25.236Z,17.94
2022-09-30T11:55:25.221Z,18.01
2022-09-30T11:56:25.362Z,18.17
2022-09-30T11:57:25.240Z,18.15
2022-09-30T11:58:42.180Z,18.18
2022-09-30T11:59:26.179Z,18.31
2022-09-30T12:00:25.166Z,18.31
2022-09-30T12:01:25.153Z,18.30
2022-09-30T12:02:25.208Z,18.38
2022-09-30T12:03:25.221Z,18.41
2022-09-30T12:04:25.123Z,18.42
2022-09-30T12:05:25.107Z,18.54
2022-09-30T12:06:25.414Z,18.54
2022-09-30T12:07:25.116Z,18.64
2022-09-30T12:08:25.102Z,18.64
2022-09-30T12:09:25.068Z,18.79
2022-09-30T12:10:25.051Z,18.74
2022-09-30T12:11:25.048Z,18.89
2022-09-30T12:12:25.035Z,18.88
2022-09-30T12:13:25.071Z,19.00
2022-09-30T12:14:25.020Z,19.04
2022-09-30T12:15:25.000Z,19.13
2022-09-30T12:16:25.082Z,19.17
2022-09-30T12:17:24.978Z,19.30
2022-09-30T12:18:24.967Z,19.30
2022-09-30T12:19:25.754Z,19.27
2022-09-30T12:20:24.966Z,19.42
2022-09-30T12:21:24.935Z,19.50
2022-09-30T12:22:24.929Z,19.53
2022-09-30T12:23:24.933Z,19.53
2022-09-30T12:24:24.954Z,19.71
2022-09-30T12:25:24.890Z,19.63
2022-09-30T12:26:24.884Z,19.62
2022-09-30T12:27:24.873Z,19.75
2022-09-30T12:28:24.942Z,19.78
2022-09-30T12:29:24.867Z,19.82
2022-09-30T12:30:24.863Z,19.90
2022-09-30T12:31:24.882Z,20.05
2022-09-30T12:32:24.811Z,20.04
2022-09-30T12:33:24.834Z,20.12
2022-09-30T12:34:24.801Z,20.15
2022-09-30T12:35:24.800Z,20.26
2022-09-30T12:36:24.774Z,20.27
2022-09-30T12:37:24.759Z,20.25
2022-09-30T12:38:24.753Z,20.39
2022-09-30T12:39:24.755Z,20.37
2022-09-30T12:40:24.755Z,20.36
2022-09-30T12:41:24.720Z,20.39
2022-09-30T12:42:24.707Z,20.42
2022-09-30T12:43:24.695Z,20.42
2022-09-30T12:44:24.713Z,20.61
2022-09-30T12:45:24.718Z,20.56
2022-09-30T12:46:24.668Z,20.65
2022-09-30T12:47:24.658Z,20.75
2022-09-30T12:48:24.652Z,20.83
2022-09-30T12:49:24.637Z,20.97
2022-09-30T12:50:24.651Z,21.10
2022-09-30T12:51:24.620Z,21.10
2022-09-30T12:52:24.610Z,21.10
2022-09-30T12:53:24.595Z,21.19
2022-09-30T12:54:24.585Z,21.28
2022-09-30T12:55:24.592Z,21.29
2022-09-30T12:56:24.566Z,21.37
2022-09-30T12:57:24.552Z,21.34
2022-09-30T12:58:29.842Z,21.40
2022-09-30T12:59:25.527Z,21.37
2022-09-30T13:00:24.546Z,21.47
2022-09-30T13:01:24.596Z,21.47
2022-09-30T13:02:24.652Z,21.51
2022-09-30T13:03:24.481Z,21.58
2022-09-30T13:04:24.480Z,21.60
2022-09-30T13:05:24.488Z,21.78
2022-09-30T13:06:24.450Z,21.96
2022-09-30T13:07:24.441Z,22.03
2022-09-30T13:08:25.576Z,22.28
2022-09-30T13:09:24.418Z,22.59